sensor_id;sensor_type;location;lat;lon;timestamp;pressure;altitude;pressure_sealevel;temperature;humidity
15558;BME280;7880;50.110;9.372;2023-04-29T00:02:45;10.502481328888098;;;10.25;100.0
15558;BME280;7880;50.110;9.372;2023-04-29T00:07:49;10.472227528883376;;;10.312;100.0
15558;BME280;7880;50.110;9.372;2023-04-29T00:12:52;10.472227528883376;;;10.312;100.0
15558;BME280;7880;50.110;9.372;2023-04-29T00:17:59;10.46214293121011;;;10.312;100.0
15558;BME280;7880;50.110;9.372;2023-04-29T00:23:04;10.265493509266525;;;10.125;100.0
15558;BME280;7880;50.110;9.372;2023-04-29T00:28:14;10.038590880163246;;;9.937;100.0
15558;BME280;7880;50.110;9.372;2023-04-29T00:33:12;10.038590880163246;;;9.812;100.0
15558;BME280;7880;50.110;9.372;2023-04-29T00:38:15;10.240282076928997;;;10.0;100.0
15558;BME280;7880;50.110;9.372;2023-04-29T00:43:23;10.199943800322945;;;10.0;100.0
15558;BME280;7880;50.110;9.372;2023-04-29T00:48:26;10.270535796607145;;;10.0;100.0
15558;BME280;7880;50.110;9.372;2023-04-29T00:53:32;10.210028367728228;;;10.0;100.0
15558;BME280;7880;50.110;9.372;2023-04-29T00:58:38;10.184816951397806;;;10.0;100.0
15558;BME280;7880;50.110;9.372;2023-04-29T01:03:45;10.210028367728228;;;10.062;100.0
15558;BME280;7880;50.110;9.372;2023-04-29T01:08:54;10.260451222216943;;;10.062;100.0
15558;BME280;7880;50.110;9.372;2023-04-29T01:13:57;10.265493509266525;;;10.125;100.0
15558;BME280;7880;50.110;9.372;2023-04-29T01:18:57;10.033548606210388;;;9.875;100.0
15558;BME280;7880;50.110;9.372;2023-04-29T01:24:01;10.184816951397806;;;9.937;100.0
15558;BME280;7880;50.110;9.372;2023-04-29T01:29:21;10.089013635698938;;;9.875;100.0
15558;BME280;7880;50.110;9.372;2023-04-29T01:34:11;10.225155221018941;;;10.062;100.0
15558;BME280;7880;50.110;9.372;2023-04-29T01:39:17;10.184816951397806;;;10.0;100.0
15558;BME280;7880;50.110;9.372;2023-04-29T01:45:22;10.189859234081814;;;10.0;100.0
15558;BME280;7880;50.110;9.372;2023-04-29T01:50:03;10.250366648990894;;;10.062;100.0
15558;BME280;7880;50.110;9.372;2023-04-29T01:55:17;10.144478700403123;;;10.0;100.0
15558;BME280;7880;50.110;9.372;2023-04-29T02:00:14;10.078929082263494;;;9.937;100.0
15558;BME280;7880;50.110;9.372;2023-04-29T02:05:18;10.184816951397806;;;10.125;100.0
15558;BME280;7880;50.110;9.372;2023-04-29T02:10:27;10.199943800322945;;;10.187;100.0
15558;BME280;7880;50.110;9.372;2023-04-29T02:15:31;10.270535796607145;;;10.187;100.0
15558;BME280;7880;50.110;9.372;2023-04-29T02:20:38;10.270535796607145;;;10.187;100.0
15558;BME280;7880;50.110;9.372;2023-04-29T02:25:35;10.230197506031255;;;10.187;100.0
15558;BME280;7880;50.110;9.372;2023-04-29T02:30:41;10.240282076928997;;;10.187;100.0
15558;BME280;7880;50.110;9.372;2023-04-29T02:35:43;10.31087410580949;;;10.25;100.0
15558;BME280;7880;50.110;9.372;2023-04-29T02:40:49;10.270535796607145;;;10.25;100.0
15558;BME280;7880;50.110;9.372;2023-04-29T02:45:49;10.134394140564837;;;10.125;100.0
15558;BME280;7880;50.110;9.372;2023-04-29T02:50:52;10.250366648990894;;;10.125;100.0
15558;BME280;7880;50.110;9.372;2023-04-29T02:55:57;10.230197506031255;;;10.125;100.0
15558;BME280;7880;50.110;9.372;2023-04-29T03:01:04;10.31087410580949;;;10.25;100.0
15558;BME280;7880;50.110;9.372;2023-04-29T03:06:04;10.411719960306073;;;10.375;100.0
15558;BME280;7880;50.110;9.372;2023-04-29T03:11:24;10.46214293121011;;;10.437;100.0
15558;BME280;7880;50.110;9.372;2023-04-29T03:16:16;10.502481328888098;;;10.5;100.0
15558;BME280;7880;50.110;9.372;2023-04-29T03:21:29;10.55290435217903;;;10.562;100.0
15558;BME280;7880;50.110;9.372;2023-04-29T03:26:24;10.557946656108834;;;10.562;100.0
15558;BME280;7880;50.110;9.372;2023-04-29T03:31:28;10.55290435217903;;;10.625;100.0
15558;BME280;7880;50.110;9.372;2023-04-29T03:36:36;10.562988960329676;;;10.562;100.0
15558;BME280;7880;50.110;9.372;2023-04-29T03:41:37;10.598285098024643;;;10.562;100.0
15558;BME280;7880;50.110;9.372;2023-04-29T03:45:51;10.588200485799462;;;10.562;100.0
15558;BME280;7880;50.110;9.372;2023-04-29T03:50:55;10.562988960329676;;;10.562;100.0
15558;BME280;7880;50.110;9.372;2023-04-29T03:55:59;10.55290435217903;;;10.562;100.0
15558;BME280;7880;50.110;9.372;2023-04-29T04:01:06;10.583158180123428;;;10.562;100.0
15558;BME280;7880;50.110;9.372;2023-04-29T04:06:08;10.588200485799462;;;10.562;100.0
15558;BME280;7880;50.110;9.372;2023-04-29T04:11:14;10.532735139370198;;;10.562;100.0
15558;BME280;7880;50.110;9.372;2023-04-29T04:16:16;10.472227528883376;;;10.437;100.0
15558;BME280;7880;50.110;9.372;2023-04-29T04:21:20;10.472227528883376;;;10.437;100.0
15558;BME280;7880;50.110;9.372;2023-04-29T04:26:26;10.38146619173349;;;10.375;100.0
15558;BME280;7880;50.110;9.372;2023-04-29T04:31:29;10.376423897990026;;;10.375;100.0
15558;BME280;7880;50.110;9.372;2023-04-29T04:36:33;10.376423897990026;;;10.375;100.0
15558;BME280;7880;50.110;9.372;2023-04-29T04:41:38;10.411719960306073;;;10.375;100.0
15558;BME280;7880;50.110;9.372;2023-04-29T04:46:44;10.416762256086804;;;10.375;100.0
15558;BME280;7880;50.110;9.372;2023-04-29T04:51:46;10.33104326739558;;;10.312;100.0
15558;BME280;7880;50.110;9.372;2023-04-29T04:56:53;10.300789526762674;;;10.312;100.0
15558;BME280;7880;50.110;9.372;2023-04-29T05:01:54;10.250366648990894;;;10.25;100.0
15558;BME280;7880;50.110;9.372;2023-04-29T05:06:59;10.240282076928997;;;10.25;100.0
15558;BME280;7880;50.110;9.372;2023-04-29T05:12:04;10.215070651867427;;;10.187;100.0
15558;BME280;7880;50.110;9.372;2023-04-29T05:17:10;10.2554089354584;;;10.187;100.0
15558;BME280;7880;50.110;9.372;2023-04-29T05:22:13;10.220112936297664;;;10.187;100.0
15558;BME280;7880;50.110;9.372;2023-04-29T05:27:18;10.210028367728228;;;10.187;100.0
15558;BME280;7880;50.110;9.372;2023-04-29T05:32:22;10.225155221018941;;;10.187;100.0
15558;BME280;7880;50.110;9.372;2023-04-29T05:37:31;10.215070651867427;;;10.125;100.0
15558;BME280;7880;50.110;9.372;2023-04-29T05:42:31;10.250366648990894;;;10.187;100.0
15558;BME280;7880;50.110;9.372;2023-04-29T05:47:35;10.29070494888001;;;10.25;100.0
15558;BME280;7880;50.110;9.372;2023-04-29T05:52:43;10.341127849934855;;;10.312;100.0
15558;BME280;7880;50.110;9.372;2023-04-29T05:57:47;10.356254725926556;;;10.312;100.0
15558;BME280;7880;50.110;9.372;2023-04-29T06:03:05;10.512565931217978;;;10.437;100.0
15558;BME280;7880;50.110;9.372;2023-04-29T06:08:05;10.578115874738433;;;10.562;100.0
15558;BME280;7880;50.110;9.372;2023-04-29T06:13:07;10.411719960306073;;;10.437;100.0
15558;BME280;7880;50.110;9.372;2023-04-29T06:18:25;10.452058334700997;;;10.5;100.0
15558;BME280;7880;50.110;9.372;2023-04-29T06:23:16;10.452058334700997;;;10.437;100.0
15558;BME280;7880;50.110;9.372;2023-04-29T06:28:22;10.421804552158573;;;10.437;100.0
15558;BME280;7880;50.110;9.372;2023-04-29T06:33:24;10.401635369617726;;;10.437;100.0
15558;BME280;7880;50.110;9.372;2023-04-29T06:38:32;10.320958686020457;;;10.312;100.0
15558;BME280;7880;50.110;9.372;2023-04-29T06:43:36;10.351212433638285;;;10.312;100.0
15558;BME280;7880;50.110;9.372;2023-04-29T06:48:42;10.356254725926556;;;10.375;100.0
15558;BME280;7880;50.110;9.372;2023-04-29T06:53:44;10.447016036882996;;;10.437;100.0
15558;BME280;7880;50.110;9.372;2023-04-29T06:58:49;10.436931442120112;;;10.437;100.0
15558;BME280;7880;50.110;9.372;2023-04-29T07:03:57;10.411719960306073;;;10.437;100.0
15558;BME280;7880;50.110;9.372;2023-04-29T07:09:00;10.396593074710108;;;10.375;100.0
15558;BME280;7880;50.110;9.372;2023-04-29T07:14:04;10.527692836895586;;;10.5;100.0
15558;BME280;7880;50.110;9.372;2023-04-29T07:19:11;10.457100632810034;;;10.437;100.0
15558;BME280;7880;50.110;9.372;2023-04-29T07:24:16;10.447016036882996;;;10.437;100.0
15558;BME280;7880;50.110;9.372;2023-04-29T07:29:17;10.547862048540264;;;10.562;100.0
15558;BME280;7880;50.110;9.372;2023-04-29T07:34:23;10.39155078009353;;;10.437;100.0
15558;BME280;7880;50.110;9.372;2023-04-29T07:39:39;10.447016036882996;;;10.437;100.0
15558;BME280;7880;50.110;9.372;2023-04-29T07:44:32;10.250366648990894;;;10.312;100.0
15558;BME280;7880;50.110;9.372;2023-04-29T07:49:37;10.351212433638285;;;10.312;100.0
15558;BME280;7880;50.110;9.372;2023-04-29T07:54:41;10.512565931217978;;;10.437;100.0
15558;BME280;7880;50.110;9.372;2023-04-29T07:59:44;10.472227528883376;;;10.5;100.0
15558;BME280;7880;50.110;9.372;2023-04-29T08:04:55;10.517608232819475;;;10.5;100.0
15558;BME280;7880;50.110;9.372;2023-04-29T08:09:55;10.568031264841556;;;10.5;100.0
15558;BME280;7880;50.110;9.372;2023-04-29T08:15:07;10.547862048540264;;;10.5;100.0
15558;BME280;7880;50.110;9.372;2023-04-29T08:20:05;10.66887741619721;;;10.687;100.0
15558;BME280;7880;50.110;9.372;2023-04-29T08:25:09;10.52265053471201;;;10.5;100.0
15558;BME280;7880;50.110;9.372;2023-04-29T08:30:14;10.52265053471201;;;10.5;100.0
15558;BME280;7880;50.110;9.372;2023-04-29T08:35:19;10.497439028159715;;;10.5;100.0
15558;BME280;7880;50.110;9.372;2023-04-29T08:40:24;10.527692836895586;;;10.5;100.0
15558;BME280;7880;50.110;9.372;2023-04-29T08:45:30;10.452058334700997;;;10.5;100.0
15558;BME280;7880;50.110;9.372;2023-04-29T08:50:37;10.502481328888098;;;10.5;100.0
15558;BME280;7880;50.110;9.372;2023-04-29T08:55:40;10.497439028159715;;;10.5;100.0
15558;BME280;7880;50.110;9.372;2023-04-29T09:00:42;10.467185229901224;;;10.437;100.0
15558;BME280;7880;50.110;9.372;2023-04-29T09:05:47;10.55290435217903;;;10.5;100.0
15558;BME280;7880;50.110;9.372;2023-04-29T09:10:50;10.603327404573793;;;10.562;100.0
15558;BME280;7880;50.110;9.372;2023-04-29T09:15:53;10.49239672772237;;;10.437;100.0
15558;BME280;7880;50.110;9.372;2023-04-29T09:20:58;10.441973739356035;;;10.437;100.0
15558;BME280;7880;50.110;9.372;2023-04-29T09:26:05;10.421804552158573;;;10.375;100.0
15558;BME280;7880;50.110;9.372;2023-04-29T09:31:10;10.431889145175228;;;10.375;100.0
15558;BME280;7880;50.110;9.372;2023-04-29T09:36:35;10.441973739356035;;;10.375;100.0
15558;BME280;7880;50.110;9.372;2023-04-29T09:41:21;10.33104326739558;;;10.375;100.0
15558;BME280;7880;50.110;9.372;2023-04-29T09:46:28;10.421804552158573;;;10.312;100.0
15558;BME280;7880;50.110;9.372;2023-04-29T09:51:31;10.467185229901224;;;10.437;100.0
15558;BME280;7880;50.110;9.372;2023-04-29T09:56:47;10.411719960306073;;;10.375;100.0
15558;BME280;7880;50.110;9.372;2023-04-29T10:01:38;10.421804552158573;;;10.312;100.0
15558;BME280;7880;50.110;9.372;2023-04-29T10:06:43;10.699131284304894;;;10.625;100.0
15558;BME280;7880;50.110;9.372;2023-04-29T10:11:52;10.744512106111506;;;10.75;100.0
15558;BME280;7880;50.110;9.372;2023-04-29T10:16:58;11.092432523146272;;;11.0;100.0
15558;BME280;7880;50.110;9.372;2023-04-29T10:22:03;11.32438023763243;;;11.25;100.0
15558;BME280;7880;50.110;9.372;2023-04-29T10:27:06;11.314295541588217;;;11.375;100.0
15558;BME280;7880;50.110;9.372;2023-04-29T10:32:08;11.36471903345082;;;11.312;100.0
15558;BME280;7880;50.110;9.372;2023-04-29T10:37:13;11.490777890436584;;;11.437;100.0
15558;BME280;7880;50.110;9.372;2023-04-29T10:42:36;11.586582743399777;;;11.562;100.0
15558;BME280;7880;50.110;9.372;2023-04-29T10:47:31;11.410100201010938;;;11.375;100.0
15558;BME280;7880;50.110;9.372;2023-04-29T10:52:50;11.40001549507142;;;11.437;100.0
15558;BME280;7880;50.110;9.372;2023-04-29T10:57:30;11.50086260685348;;;11.437;100.0
15558;BME280;7880;50.110;9.372;2023-04-29T11:02:36;11.50086260685348;;;11.437;100.0
15558;BME280;7880;50.110;9.372;2023-04-29T11:07:44;11.60170983505086;;;11.562;100.0
15558;BME280;7880;50.110;9.372;2023-04-29T11:12:45;11.556328567955642;;;11.562;100.0
15558;BME280;7880;50.110;9.372;2023-04-29T11:17:49;11.56137092980207;;;11.562;100.0
15558;BME280;7880;50.110;9.372;2023-04-29T11:22:54;11.596667470876127;;;11.562;100.0
15558;BME280;7880;50.110;9.372;2023-04-29T11:28:03;11.61683692932129;;;11.625;100.0
15558;BME280;7880;50.110;9.372;2023-04-29T11:33:03;11.954676050512353;;;11.875;100.0
15558;BME280;7880;50.110;9.372;2023-04-29T11:38:30;11.87904031286016;;;11.875;100.0
15558;BME280;7880;50.110;9.372;2023-04-29T11:43:35;12.010142299742437;;;12.0;100.0
15558;BME280;7880;50.110;9.372;2023-04-29T11:48:46;12.055523802578682;;;12.062;100.0
15558;BME280;7880;50.110;9.372;2023-04-29T11:53:47;12.055523802578682;;;12.062;100.0
15558;BME280;7880;50.110;9.372;2023-04-29T11:58:55;12.03535424285219;;;12.062;100.0
15558;BME280;7880;50.110;9.372;2023-04-29T12:04:00;11.974845591612393;;;12.0;100.0
15558;BME280;7880;50.110;9.372;2023-04-29T12:09:01;11.939548897743226;;;11.937;100.0
15558;BME280;7880;50.110;9.372;2023-04-29T12:14:08;11.899209836497903;;;11.875;100.0
15558;BME280;7880;50.110;9.372;2023-04-29T12:19:11;11.692472439963604;;;11.75;100.0
15558;BME280;7880;50.110;9.372;2023-04-29T12:24:15;11.672302964056144;;;11.625;100.0
15558;BME280;7880;50.110;9.372;2023-04-29T12:29:21;11.56137092980207;;;11.625;100.0
15558;BME280;7880;50.110;9.372;2023-04-29T12:34:32;11.65717586018145;;;11.625;100.0
15558;BME280;7880;50.110;9.372;2023-04-29T12:39:29;11.6269216602901;;;11.625;100.0
15558;BME280;7880;50.110;9.372;2023-04-29T12:44:36;11.747938522719778;;;11.687;100.0
15558;BME280;7880;50.110;9.372;2023-04-29T12:49:41;11.571455654368037;;;11.562;100.0
15558;BME280;7880;50.110;9.372;2023-04-29T12:54:42;11.60170983505086;;;11.562;100.0
15558;BME280;7880;50.110;9.372;2023-04-29T12:59:45;11.652133492805296;;;11.625;100.0
15558;BME280;7880;50.110;9.372;2023-04-29T13:04:50;11.783235139172756;;;11.687;100.0
15558;BME280;7880;50.110;9.372;2023-04-29T13:09:57;11.843743657699088;;;11.812;100.0
15558;BME280;7880;50.110;9.372;2023-04-29T13:14:59;11.853828414861345;;;11.812;100.0
15558;BME280;7880;50.110;9.372;2023-04-29T13:20:05;12.065608584188158;;;11.937;100.0
15558;BME280;7880;50.110;9.372;2023-04-29T13:25:11;12.121074903849513;;;12.125;100.0
15558;BME280;7880;50.110;9.372;2023-04-29T13:30:15;12.095862936001504;;;12.125;100.0
15558;BME280;7880;50.110;9.372;2023-04-29T13:35:31;12.065608584188158;;;12.062;100.0
15558;BME280;7880;50.110;9.372;2023-04-29T13:40:26;12.126117298292229;;;12.062;100.0
15558;BME280;7880;50.110;9.372;2023-04-29T13:45:31;12.14124448336661;;;12.062;100.0
15558;BME280;7880;50.110;9.372;2023-04-29T13:50:35;12.146286878973479;;;12.125;100.0
15558;BME280;7880;50.110;9.372;2023-04-29T13:55:44;12.171498861373403;;;12.125;100.0
15558;BME280;7880;50.110;9.372;2023-04-29T14:00:45;12.337898127693915;;;12.25;100.0
15558;BME280;7880;50.110;9.372;2023-04-29T14:05:50;12.368152573803673;;;12.312;100.0
15558;BME280;7880;50.110;9.372;2023-04-29T14:10:53;12.201753249857575;;;12.25;100.0
15558;BME280;7880;50.110;9.372;2023-04-29T14:15:59;12.161414067540317;;;12.187;100.0
15558;BME280;7880;50.110;9.372;2023-04-29T14:21:07;12.065608584188158;;;12.062;100.0
15558;BME280;7880;50.110;9.372;2023-04-29T14:26:06;12.03535424285219;;;12.062;100.0
15558;BME280;7880;50.110;9.372;2023-04-29T14:31:13;12.03535424285219;;;12.0;100.0
15558;BME280;7880;50.110;9.372;2023-04-29T14:36:14;11.833658901700982;;;11.875;100.0
15558;BME280;7880;50.110;9.372;2023-04-29T14:41:21;11.75298089562566;;;11.75;100.0
15558;BME280;7880;50.110;9.372;2023-04-29T14:46:25;11.64709112572018;;;11.625;100.0
15558;BME280;7880;50.110;9.372;2023-04-29T14:51:30;11.591625106992433;;;11.562;100.0
15558;BME280;7880;50.110;9.372;2023-04-29T14:56:36;11.7075995499501;;;11.625;100.0
15558;BME280;7880;50.110;9.372;2023-04-29T15:01:39;11.430269616382429;;;11.437;100.0
15558;BME280;7880;50.110;9.372;2023-04-29T15:06:43;11.526074402988888;;;11.437;100.0
15558;BME280;7880;50.110;9.372;2023-04-29T15:11:47;11.642048758926103;;;11.562;100.0
15558;BME280;7880;50.110;9.372;2023-04-29T15:16:53;11.818531769886613;;;11.687;100.0
15558;BME280;7880;50.110;9.372;2023-04-29T15:22:03;11.783235139172756;;;11.687;100.0
15558;BME280;7880;50.110;9.372;2023-04-29T15:27:09;11.667260595806875;;;11.687;100.0
15558;BME280;7880;50.110;9.372;2023-04-29T15:32:13;11.75802326882258;;;11.687;100.0
15558;BME280;7880;50.110;9.372;2023-04-29T15:37:16;11.71768429139629;;;11.687;100.0
15558;BME280;7880;50.110;9.372;2023-04-29T15:42:20;11.828616524138488;;;11.812;100.0
15558;BME280;7880;50.110;9.372;2023-04-29T15:47:25;11.722726662555942;;;11.75;100.0
15558;BME280;7880;50.110;9.372;2023-04-29T15:52:30;11.75298089562566;;;11.687;100.0
15558;BME280;7880;50.110;9.372;2023-04-29T15:57:34;11.75802326882258;;;11.687;100.0
15558;BME280;7880;50.110;9.372;2023-04-29T16:02:42;11.727769034006633;;;11.687;100.0
15558;BME280;7880;50.110;9.372;2023-04-29T16:07:44;11.838701279554517;;;11.812;100.0
15558;BME280;7880;50.110;9.372;2023-04-29T16:12:50;11.919379364792258;;;11.875;100.0
15558;BME280;7880;50.110;9.372;2023-04-29T16:17:54;11.798362264875323;;;11.812;100.0
15558;BME280;7880;50.110;9.372;2023-04-29T16:22:58;11.838701279554517;;;11.875;100.0
15558;BME280;7880;50.110;9.372;2023-04-29T16:28:03;11.89416745515191;;;11.875;100.0
15558;BME280;7880;50.110;9.372;2023-04-29T16:33:06;11.848786036134697;;;11.812;100.0
15558;BME280;7880;50.110;9.372;2023-04-29T16:38:12;11.924421747593442;;;11.812;100.0
15558;BME280;7880;50.110;9.372;2023-04-29T16:43:20;11.954676050512353;;;11.937;100.0
15558;BME280;7880;50.110;9.372;2023-04-29T16:48:22;11.768108016089537;;;11.75;100.0
15558;BME280;7880;50.110;9.372;2023-04-29T16:53:24;11.747938522719778;;;11.687;100.0
15558;BME280;7880;50.110;9.372;2023-04-29T16:58:28;11.631964026211062;;;11.562;100.0
15558;BME280;7880;50.110;9.372;2023-04-29T17:03:34;11.596667470876127;;;11.562;100.0
15558;BME280;7880;50.110;9.372;2023-04-29T17:08:39;11.541201484162594;;;11.5;100.0
15558;BME280;7880;50.110;9.372;2023-04-29T17:13:46;11.490777890436584;;;11.437;100.0
15558;BME280;7880;50.110;9.372;2023-04-29T17:18:49;11.450439036410534;;;11.375;100.0
15558;BME280;7880;50.110;9.372;2023-04-29T17:24:07;11.36976138423779;;;11.375;100.0
15558;BME280;7880;50.110;9.372;2023-04-29T17:29:03;11.405057847895659;;;11.312;100.0
15558;BME280;7880;50.110;9.372;2023-04-29T17:34:17;11.384888438344934;;;11.312;100.0
15558;BME280;7880;50.110;9.372;2023-04-29T17:39:10;11.304210846708155;;;11.25;100.0
15558;BME280;7880;50.110;9.372;2023-04-29T17:44:17;11.243702701875009;;;11.187;100.0
15558;BME280;7880;50.110;9.372;2023-04-29T17:49:18;11.263872078829445;;;11.187;100.0
15558;BME280;7880;50.110;9.372;2023-04-29T17:54:33;11.238660358363996;;;11.187;100.0
15558;BME280;7880;50.110;9.372;2023-04-29T17:59:28;11.440354325814406;;;11.437;100.0
15558;BME280;7880;50.110;9.372;2023-04-29T18:04:31;11.173109919205308;;;11.125;100.0
15558;BME280;7880;50.110;9.372;2023-04-29T18:09:46;11.157982901768992;;;11.062;100.0
15558;BME280;7880;50.110;9.372;2023-04-29T18:14:51;11.05209385305643;;;11.062;100.0
15558;BME280;7880;50.110;9.372;2023-04-29T18:19:45;11.05209385305643;;;11.0;100.0
15558;BME280;7880;50.110;9.372;2023-04-29T18:24:49;11.057136185799028;;;10.937;100.0
15558;BME280;7880;50.110;9.372;2023-04-29T18:29:53;11.001670541637576;;;10.937;100.0
15558;BME280;7880;50.110;9.372;2023-04-29T18:34:59;10.946204932691762;;;10.937;100.0
15558;BME280;7880;50.110;9.372;2023-04-29T18:40:16;11.03192452499643;;;10.937;100.0
15558;BME280;7880;50.110;9.372;2023-04-29T18:45:09;10.931077954545618;;;10.875;100.0
15558;BME280;7880;50.110;9.372;2023-04-29T18:50:15;10.88569703582325;;;10.812;100.0
15558;BME280;7880;50.110;9.372;2023-04-29T18:55:21;10.880654712975957;;;10.75;100.0
15558;BME280;7880;50.110;9.372;2023-04-29T18:58:55;10.845358461193973;;;10.75;100.0
15558;BME280;7880;50.110;9.372;2023-04-29T19:04:05;10.845358461193973;;;10.75;100.0
15558;BME280;7880;50.110;9.372;2023-04-29T19:09:07;10.67896203773562;;;10.687;100.0
15558;BME280;7880;50.110;9.372;2023-04-29T19:14:14;10.67896203773562;;;10.625;100.0
15558;BME280;7880;50.110;9.372;2023-04-29T19:19:29;10.709215909335763;;;10.562;100.0
15558;BME280;7880;50.110;9.372;2023-04-29T19:24:20;10.64366586744436;;;10.562;100.0
15558;BME280;7880;50.110;9.372;2023-04-29T19:29:24;10.562988960329676;;;10.5;100.0
15558;BME280;7880;50.110;9.372;2023-04-29T19:34:31;10.638623558566906;;;10.5;100.0
15558;BME280;7880;50.110;9.372;2023-04-29T19:39:33;10.52265053471201;;;10.5;100.0
15558;BME280;7880;50.110;9.372;2023-04-29T19:44:36;10.55290435217903;;;10.437;100.0
15558;BME280;7880;50.110;9.372;2023-04-29T19:49:40;10.613412018545205;;;10.5;100.0
15558;BME280;7880;50.110;9.372;2023-04-29T19:54:50;10.62349663368077;;;10.562;100.0
15558;BME280;7880;50.110;9.372;2023-04-29T19:59:49;10.694088972226018;;;10.562;100.0
15558;BME280;7880;50.110;9.372;2023-04-29T20:04:56;10.63358124998049;;;10.5;100.0
15558;BME280;7880;50.110;9.372;2023-04-29T20:09:58;10.573073569644475;;;10.5;100.0
15558;BME280;7880;50.110;9.372;2023-04-29T20:15:07;10.578115874738433;;;10.5;100.0
15558;BME280;7880;50.110;9.372;2023-04-29T20:20:09;10.52265053471201;;;10.437;100.0
15558;BME280;7880;50.110;9.372;2023-04-29T20:25:12;10.532735139370198;;;10.437;100.0
15558;BME280;7880;50.110;9.372;2023-04-29T20:30:15;10.34617014164105;;;10.312;100.0
15558;BME280;7880;50.110;9.372;2023-04-29T20:35:20;10.532735139370198;;;10.375;100.0
15558;BME280;7880;50.110;9.372;2023-04-29T20:40:25;10.320958686020457;;;10.25;100.0
15558;BME280;7880;50.110;9.372;2023-04-29T20:45:35;10.280620372161502;;;10.187;100.0
15558;BME280;7880;50.110;9.372;2023-04-29T20:50:33;10.174732386902907;;;10.125;100.0
15558;BME280;7880;50.110;9.372;2023-04-29T20:55:38;10.215070651867427;;;10.125;100.0
15558;BME280;7880;50.110;9.372;2023-04-29T21:00:43;10.210028367728228;;;10.125;100.0
15558;BME280;7880;50.110;9.372;2023-04-29T21:05:52;10.11422502438072;;;10.062;100.0
15558;BME280;7880;50.110;9.372;2023-04-29T21:10:55;10.164647823572158;;;10.0;100.0
15558;BME280;7880;50.110;9.372;2023-04-29T21:15:59;10.199943800322945;;;10.187;100.0
15558;BME280;7880;50.110;9.372;2023-04-29T21:21:15;10.07388680598233;;;10.062;100.0
15558;BME280;7880;50.110;9.372;2023-04-29T21:26:08;10.058759978885064;;;10.0;100.0
15558;BME280;7880;50.110;9.372;2023-04-29T21:31:15;10.038590880163246;;;10.0;100.0
15558;BME280;7880;50.110;9.372;2023-04-29T21:36:22;10.230197506031255;;;10.062;100.0
15558;BME280;7880;50.110;9.372;2023-04-29T21:41:24;10.078929082263494;;;10.0;100.0
15558;BME280;7880;50.110;9.372;2023-04-29T21:46:28;10.109182746062288;;;10.0;100.0
15558;BME280;7880;50.110;9.372;2023-04-29T21:51:33;10.109182746062288;;;10.0;100.0
15558;BME280;7880;50.110;9.372;2023-04-29T21:56:37;10.018421786098042;;;10.0;100.0
15558;BME280;7880;50.110;9.372;2023-04-29T22:01:48;10.099098190298538;;;10.0;100.0
15558;BME280;7880;50.110;9.372;2023-04-29T22:06:48;10.063802254293114;;;10.0;100.0
15558;BME280;7880;50.110;9.372;2023-04-29T22:11:54;10.04867542894208;;;10.0;100.0
15558;BME280;7880;50.110;9.372;2023-04-29T22:17:02;10.00833724081167;;;9.937;100.0
15558;BME280;7880;50.110;9.372;2023-04-29T22:22:05;9.952872262545862;;;9.937;100.0
15558;BME280;7880;50.110;9.372;2023-04-29T22:27:04;10.043633154407143;;;10.0;100.0
15558;BME280;7880;50.110;9.372;2023-04-29T22:32:08;9.978083611937473;;;9.937;100.0
15558;BME280;7880;50.110;9.372;2023-04-29T22:37:12;10.023464059177787;;;9.937;100.0
15558;BME280;7880;50.110;9.372;2023-04-29T22:42:17;9.937745456403354;;;9.937;100.0
15558;BME280;7880;50.110;9.372;2023-04-29T22:47:35;10.003294968605042;;;9.937;100.0
15558;BME280;7880;50.110;9.372;2023-04-29T22:52:29;9.942787724826484;;;9.875;100.0
15558;BME280;7880;50.110;9.372;2023-04-29T22:57:30;9.957914531842107;;;9.937;100.0
15558;BME280;7880;50.110;9.372;2023-04-29T23:02:34;9.907491851976374;;;9.812;100.0
15558;BME280;7880;50.110;9.372;2023-04-29T23:07:40;9.872195993387141;;;9.812;100.0
15558;BME280;7880;50.110;9.372;2023-04-29T23:12:55;9.776393020531396;;;9.75;100.0
15558;BME280;7880;50.110;9.372;2023-04-29T23:17:48;9.796562058717246;;;9.75;100.0
15558;BME280;7880;50.110;9.372;2023-04-29T23:22:51;9.816731101559707;;;9.687;100.0
15558;BME280;7880;50.110;9.372;2023-04-29T23:27:55;9.791519798734225;;;9.75;100.0
15558;BME280;7880;50.110;9.372;2023-04-29T23:32:58;9.77135076171253;;;9.75;100.0
15558;BME280;7880;50.110;9.372;2023-04-29T23:38:05;9.751181729347445;;;9.687;100.0
15558;BME280;7880;50.110;9.372;2023-04-29T23:43:08;9.731012701638974;;;9.687;100.0
15558;BME280;7880;50.110;9.372;2023-04-29T23:48:12;9.776393020531396;;;9.687;100.0
15558;BME280;7880;50.110;9.372;2023-04-29T23:53:18;9.731012701638974;;;9.687;100.0